sensor_id;sensor_type;location;lat;lon;timestamp;P1;durP1;ratioP1;P2;durP2;ratioP2
27533;SDS011;14973;51.460;7.008;2023-09-12T00:00:47;10.80;;;7.43;;
27533;SDS011;14973;51.460;7.008;2023-09-12T00:03:13;11.85;;;7.00;;
27533;SDS011;14973;51.460;7.008;2023-09-12T00:05:39;18.75;;;7.53;;
27533;SDS011;14973;51.460;7.008;2023-09-12T00:08:05;11.60;;;6.50;;
27533;SDS011;14973;51.460;7.008;2023-09-12T00:10:30;11.95;;;6.93;;
27533;SDS011;14973;51.460;7.008;2023-09-12T00:12:56;12.48;;;6.80;;
27533;SDS011;14973;51.460;7.008;2023-09-12T00:15:22;10.32;;;6.35;;
27533;SDS011;14973;51.460;7.008;2023-09-12T00:17:47;13.13;;;7.28;;
27533;SDS011;14973;51.460;7.008;2023-09-12T00:20:14;13.57;;;7.30;;
27533;SDS011;14973;51.460;7.008;2023-09-12T00:22:40;10.02;;;6.65;;
27533;SDS011;14973;51.460;7.008;2023-09-12T00:25:05;16.52;;;7.20;;
27533;SDS011;14973;51.460;7.008;2023-09-12T00:27:31;12.75;;;7.13;;
27533;SDS011;14973;51.460;7.008;2023-09-12T00:29:57;12.40;;;7.05;;
27533;SDS011;14973;51.460;7.008;2023-09-12T00:32:22;11.15;;;6.97;;
27533;SDS011;14973;51.460;7.008;2023-09-12T00:34:48;11.85;;;7.55;;
27533;SDS011;14973;51.460;7.008;2023-09-12T00:37:14;13.27;;;7.22;;
27533;SDS011;14973;51.460;7.008;2023-09-12T00:39:39;15.18;;;8.55;;
27533;SDS011;14973;51.460;7.008;2023-09-12T00:42:05;15.48;;;8.82;;
27533;SDS011;14973;51.460;7.008;2023-09-12T00:44:32;16.70;;;9.10;;
27533;SDS011;14973;51.460;7.008;2023-09-12T00:46:58;30.38;;;14.77;;
27533;SDS011;14973;51.460;7.008;2023-09-12T00:49:25;32.55;;;17.85;;
27533;SDS011;14973;51.460;7.008;2023-09-12T00:51:53;30.85;;;19.88;;
27533;SDS011;14973;51.460;7.008;2023-09-12T00:54:20;37.05;;;21.10;;
27533;SDS011;14973;51.460;7.008;2023-09-12T00:56:46;42.95;;;24.15;;
27533;SDS011;14973;51.460;7.008;2023-09-12T00:59:11;39.53;;;23.33;;
27533;SDS011;14973;51.460;7.008;2023-09-12T01:01:40;43.92;;;22.23;;
27533;SDS011;14973;51.460;7.008;2023-09-12T01:04:06;46.20;;;25.30;;
27533;SDS011;14973;51.460;7.008;2023-09-12T01:06:32;45.45;;;26.23;;
27533;SDS011;14973;51.460;7.008;2023-09-12T01:08:59;56.95;;;27.52;;
27533;SDS011;14973;51.460;7.008;2023-09-12T01:11:26;52.67;;;31.20;;
27533;SDS011;14973;51.460;7.008;2023-09-12T01:13:53;54.60;;;31.30;;
27533;SDS011;14973;51.460;7.008;2023-09-12T01:16:18;59.85;;;34.35;;
27533;SDS011;14973;51.460;7.008;2023-09-12T01:18:44;58.28;;;34.65;;
27533;SDS011;14973;51.460;7.008;2023-09-12T01:29:43;73.07;;;41.33;;
27533;SDS011;14973;51.460;7.008;2023-09-12T01:32:11;80.88;;;41.10;;
27533;SDS011;14973;51.460;7.008;2023-09-12T01:34:39;76.47;;;42.92;;
27533;SDS011;14973;51.460;7.008;2023-09-12T01:37:04;87.70;;;48.08;;
27533;SDS011;14973;51.460;7.008;2023-09-12T01:39:30;96.07;;;49.22;;
27533;SDS011;14973;51.460;7.008;2023-09-12T01:41:56;100.88;;;51.28;;
27533;SDS011;14973;51.460;7.008;2023-09-12T01:44:24;89.93;;;49.92;;
27533;SDS011;14973;51.460;7.008;2023-09-12T01:46:52;92.35;;;47.25;;
27533;SDS011;14973;51.460;7.008;2023-09-12T01:49:20;81.45;;;46.50;;
27533;SDS011;14973;51.460;7.008;2023-09-12T01:51:49;88.45;;;46.45;;
27533;SDS011;14973;51.460;7.008;2023-09-12T01:54:15;85.28;;;45.97;;
27533;SDS011;14973;51.460;7.008;2023-09-12T01:56:42;84.18;;;46.22;;
27533;SDS011;14973;51.460;7.008;2023-09-12T01:59:08;83.80;;;45.80;;
27533;SDS011;14973;51.460;7.008;2023-09-12T02:01:34;87.28;;;46.72;;
27533;SDS011;14973;51.460;7.008;2023-09-12T02:03:59;79.88;;;43.85;;
27533;SDS011;14973;51.460;7.008;2023-09-12T02:06:25;73.57;;;41.45;;
27533;SDS011;14973;51.460;7.008;2023-09-12T02:08:50;80.13;;;44.97;;
27533;SDS011;14973;51.460;7.008;2023-09-12T02:11:16;82.15;;;46.85;;
27533;SDS011;14973;51.460;7.008;2023-09-12T02:13:42;92.60;;;49.60;;
27533;SDS011;14973;51.460;7.008;2023-09-12T02:16:08;96.72;;;50.15;;
27533;SDS011;14973;51.460;7.008;2023-09-12T02:18:33;98.18;;;51.05;;
27533;SDS011;14973;51.460;7.008;2023-09-12T02:20:59;104.25;;;55.05;;
27533;SDS011;14973;51.460;7.008;2023-09-12T02:23:24;111.35;;;54.78;;
27533;SDS011;14973;51.460;7.008;2023-09-12T02:25:50;111.28;;;58.08;;
27533;SDS011;14973;51.460;7.008;2023-09-12T02:28:15;122.43;;;58.65;;
27533;SDS011;14973;51.460;7.008;2023-09-12T02:30:41;121.53;;;60.13;;
27533;SDS011;14973;51.460;7.008;2023-09-12T02:33:07;128.27;;;60.60;;
27533;SDS011;14973;51.460;7.008;2023-09-12T02:35:32;132.23;;;63.55;;
27533;SDS011;14973;51.460;7.008;2023-09-12T02:37:58;135.95;;;63.83;;
27533;SDS011;14973;51.460;7.008;2023-09-12T02:40:24;149.63;;;67.10;;
27533;SDS011;14973;51.460;7.008;2023-09-12T02:42:49;157.52;;;70.45;;
27533;SDS011;14973;51.460;7.008;2023-09-12T02:45:15;155.73;;;66.18;;
27533;SDS011;14973;51.460;7.008;2023-09-12T02:47:41;140.40;;;62.67;;
27533;SDS011;14973;51.460;7.008;2023-09-12T02:50:08;147.73;;;64.22;;
27533;SDS011;14973;51.460;7.008;2023-09-12T02:52:34;140.45;;;63.30;;
27533;SDS011;14973;51.460;7.008;2023-09-12T02:55:00;144.10;;;66.40;;
27533;SDS011;14973;51.460;7.008;2023-09-12T02:57:25;139.48;;;62.15;;
27533;SDS011;14973;51.460;7.008;2023-09-12T02:59:51;159.02;;;65.72;;
27533;SDS011;14973;51.460;7.008;2023-09-12T03:02:16;159.10;;;66.75;;
27533;SDS011;14973;51.460;7.008;2023-09-12T03:04:42;142.55;;;66.20;;
27533;SDS011;14973;51.460;7.008;2023-09-12T03:07:07;161.52;;;66.25;;
27533;SDS011;14973;51.460;7.008;2023-09-12T03:09:33;136.82;;;63.95;;
27533;SDS011;14973;51.460;7.008;2023-09-12T03:12:00;106.85;;;53.35;;
27533;SDS011;14973;51.460;7.008;2023-09-12T03:14:27;119.60;;;55.10;;
27533;SDS011;14973;51.460;7.008;2023-09-12T03:16:53;138.82;;;56.95;;
27533;SDS011;14973;51.460;7.008;2023-09-12T03:19:19;128.63;;;56.40;;
27533;SDS011;14973;51.460;7.008;2023-09-12T03:21:45;109.10;;;54.85;;
27533;SDS011;14973;51.460;7.008;2023-09-12T03:24:10;120.38;;;57.13;;
27533;SDS011;14973;51.460;7.008;2023-09-12T03:26:36;107.47;;;52.65;;
27533;SDS011;14973;51.460;7.008;2023-09-12T03:29:02;109.00;;;51.83;;
27533;SDS011;14973;51.460;7.008;2023-09-12T03:31:28;122.38;;;53.17;;
27533;SDS011;14973;51.460;7.008;2023-09-12T03:33:54;113.25;;;53.25;;
27533;SDS011;14973;51.460;7.008;2023-09-12T03:36:19;112.03;;;52.78;;
27533;SDS011;14973;51.460;7.008;2023-09-12T03:38:45;112.25;;;52.45;;
27533;SDS011;14973;51.460;7.008;2023-09-12T03:41:11;123.97;;;55.50;;
27533;SDS011;14973;51.460;7.008;2023-09-12T03:43:36;100.97;;;51.20;;
27533;SDS011;14973;51.460;7.008;2023-09-12T03:46:02;104.30;;;52.05;;
27533;SDS011;14973;51.460;7.008;2023-09-12T03:48:28;103.97;;;50.88;;
27533;SDS011;14973;51.460;7.008;2023-09-12T03:50:57;108.18;;;54.00;;
27533;SDS011;14973;51.460;7.008;2023-09-12T03:53:22;111.78;;;51.13;;
27533;SDS011;14973;51.460;7.008;2023-09-12T03:55:48;101.93;;;50.25;;
27533;SDS011;14973;51.460;7.008;2023-09-12T03:58:13;101.15;;;49.60;;
27533;SDS011;14973;51.460;7.008;2023-09-12T04:00:39;106.88;;;50.83;;
27533;SDS011;14973;51.460;7.008;2023-09-12T04:03:05;101.88;;;49.78;;
27533;SDS011;14973;51.460;7.008;2023-09-12T04:05:30;89.32;;;46.17;;
27533;SDS011;14973;51.460;7.008;2023-09-12T04:07:56;86.28;;;43.97;;
27533;SDS011;14973;51.460;7.008;2023-09-12T04:10:22;96.15;;;45.50;;
27533;SDS011;14973;51.460;7.008;2023-09-12T04:12:48;86.07;;;42.45;;
27533;SDS011;14973;51.460;7.008;2023-09-12T04:15:13;82.88;;;43.15;;
27533;SDS011;14973;51.460;7.008;2023-09-12T04:17:39;68.38;;;40.15;;
27533;SDS011;14973;51.460;7.008;2023-09-12T04:20:05;71.95;;;39.63;;
27533;SDS011;14973;51.460;7.008;2023-09-12T04:22:31;70.55;;;37.50;;
27533;SDS011;14973;51.460;7.008;2023-09-12T04:24:56;74.25;;;39.38;;
27533;SDS011;14973;51.460;7.008;2023-09-12T04:27:22;77.93;;;38.65;;
27533;SDS011;14973;51.460;7.008;2023-09-12T04:29:47;67.32;;;38.88;;
27533;SDS011;14973;51.460;7.008;2023-09-12T04:32:13;71.30;;;37.65;;
27533;SDS011;14973;51.460;7.008;2023-09-12T04:34:41;67.20;;;36.45;;
27533;SDS011;14973;51.460;7.008;2023-09-12T04:37:07;65.60;;;36.72;;
27533;SDS011;14973;51.460;7.008;2023-09-12T04:39:33;63.38;;;35.88;;
27533;SDS011;14973;51.460;7.008;2023-09-12T04:41:58;65.20;;;35.83;;
27533;SDS011;14973;51.460;7.008;2023-09-12T04:44:24;72.68;;;35.47;;
27533;SDS011;14973;51.460;7.008;2023-09-12T04:46:50;66.95;;;36.72;;
27533;SDS011;14973;51.460;7.008;2023-09-12T04:49:15;68.72;;;37.42;;
27533;SDS011;14973;51.460;7.008;2023-09-12T04:51:41;62.45;;;36.03;;
27533;SDS011;14973;51.460;7.008;2023-09-12T04:54:07;70.43;;;35.17;;
27533;SDS011;14973;51.460;7.008;2023-09-12T04:56:33;72.35;;;35.30;;
27533;SDS011;14973;51.460;7.008;2023-09-12T04:58:59;55.03;;;31.58;;
27533;SDS011;14973;51.460;7.008;2023-09-12T05:01:25;54.80;;;30.38;;
27533;SDS011;14973;51.460;7.008;2023-09-12T05:03:51;52.08;;;29.83;;
27533;SDS011;14973;51.460;7.008;2023-09-12T05:06:16;47.33;;;26.77;;
27533;SDS011;14973;51.460;7.008;2023-09-12T05:08:42;46.35;;;24.55;;
27533;SDS011;14973;51.460;7.008;2023-09-12T05:11:08;41.65;;;26.67;;
27533;SDS011;14973;51.460;7.008;2023-09-12T05:13:34;42.50;;;23.25;;
27533;SDS011;14973;51.460;7.008;2023-09-12T05:15:59;46.17;;;26.10;;
27533;SDS011;14973;51.460;7.008;2023-09-12T05:18:25;37.78;;;22.27;;
27533;SDS011;14973;51.460;7.008;2023-09-12T05:20:50;38.10;;;21.27;;
27533;SDS011;14973;51.460;7.008;2023-09-12T05:23:16;29.27;;;19.35;;
27533;SDS011;14973;51.460;7.008;2023-09-12T05:25:41;28.02;;;18.27;;
27533;SDS011;14973;51.460;7.008;2023-09-12T05:28:07;29.55;;;16.55;;
27533;SDS011;14973;51.460;7.008;2023-09-12T05:30:33;34.47;;;17.67;;
27533;SDS011;14973;51.460;7.008;2023-09-12T05:32:58;23.45;;;16.20;;
27533;SDS011;14973;51.460;7.008;2023-09-12T05:35:24;31.83;;;15.70;;
27533;SDS011;14973;51.460;7.008;2023-09-12T05:37:50;27.08;;;17.42;;
27533;SDS011;14973;51.460;7.008;2023-09-12T05:40:16;27.35;;;16.83;;
27533;SDS011;14973;51.460;7.008;2023-09-12T05:42:43;34.47;;;17.90;;
27533;SDS011;14973;51.460;7.008;2023-09-12T05:45:09;81.50;;;53.63;;
27533;SDS011;14973;51.460;7.008;2023-09-12T05:47:34;28.98;;;19.67;;
27533;SDS011;14973;51.460;7.008;2023-09-12T05:50:00;31.55;;;18.85;;
27533;SDS011;14973;51.460;7.008;2023-09-12T05:52:27;29.33;;;18.77;;
27533;SDS011;14973;51.460;7.008;2023-09-12T05:54:52;28.58;;;18.70;;
27533;SDS011;14973;51.460;7.008;2023-09-12T05:57:18;26.70;;;16.13;;
27533;SDS011;14973;51.460;7.008;2023-09-12T05:59:44;30.08;;;14.70;;
27533;SDS011;14973;51.460;7.008;2023-09-12T06:02:09;26.58;;;15.77;;
27533;SDS011;14973;51.460;7.008;2023-09-12T06:04:35;21.75;;;14.20;;
27533;SDS011;14973;51.460;7.008;2023-09-12T06:07:01;22.15;;;14.95;;
27533;SDS011;14973;51.460;7.008;2023-09-12T06:09:28;23.98;;;14.57;;
27533;SDS011;14973;51.460;7.008;2023-09-12T06:11:56;26.05;;;17.10;;
27533;SDS011;14973;51.460;7.008;2023-09-12T06:14:22;24.50;;;14.90;;
27533;SDS011;14973;51.460;7.008;2023-09-12T06:16:48;21.20;;;13.35;;
27533;SDS011;14973;51.460;7.008;2023-09-12T06:19:13;22.60;;;14.15;;
27533;SDS011;14973;51.460;7.008;2023-09-12T06:21:39;29.00;;;14.68;;
27533;SDS011;14973;51.460;7.008;2023-09-12T06:24:10;30.42;;;16.13;;
27533;SDS011;14973;51.460;7.008;2023-09-12T06:26:37;23.08;;;15.27;;
27533;SDS011;14973;51.460;7.008;2023-09-12T06:29:03;34.17;;;21.48;;
27533;SDS011;14973;51.460;7.008;2023-09-12T06:31:29;30.27;;;15.57;;
27533;SDS011;14973;51.460;7.008;2023-09-12T06:33:55;18.15;;;8.60;;
27533;SDS011;14973;51.460;7.008;2023-09-12T06:36:21;19.13;;;6.65;;
27533;SDS011;14973;51.460;7.008;2023-09-12T06:38:49;10.68;;;4.70;;
27533;SDS011;14973;51.460;7.008;2023-09-12T06:41:14;44.38;;;5.72;;
27533;SDS011;14973;51.460;7.008;2023-09-12T06:43:40;10.23;;;3.47;;
27533;SDS011;14973;51.460;7.008;2023-09-12T06:46:07;11.75;;;5.40;;
27533;SDS011;14973;51.460;7.008;2023-09-12T06:48:33;11.05;;;5.07;;
27533;SDS011;14973;51.460;7.008;2023-09-12T06:50:58;10.60;;;4.40;;
27533;SDS011;14973;51.460;7.008;2023-09-12T06:53:24;12.00;;;5.15;;
27533;SDS011;14973;51.460;7.008;2023-09-12T06:55:49;16.27;;;6.28;;
27533;SDS011;14973;51.460;7.008;2023-09-12T06:58:15;15.70;;;5.45;;
27533;SDS011;14973;51.460;7.008;2023-09-12T07:00:40;20.88;;;11.13;;
27533;SDS011;14973;51.460;7.008;2023-09-12T07:03:06;12.73;;;6.57;;
27533;SDS011;14973;51.460;7.008;2023-09-12T07:05:32;15.00;;;7.65;;
27533;SDS011;14973;51.460;7.008;2023-09-12T07:08:00;23.40;;;8.27;;
27533;SDS011;14973;51.460;7.008;2023-09-12T07:10:26;24.02;;;8.23;;
27533;SDS011;14973;51.460;7.008;2023-09-12T07:12:52;19.80;;;8.55;;
27533;SDS011;14973;51.460;7.008;2023-09-12T07:15:18;21.38;;;7.03;;
27533;SDS011;14973;51.460;7.008;2023-09-12T07:17:44;14.48;;;6.53;;
27533;SDS011;14973;51.460;7.008;2023-09-12T07:20:09;11.30;;;6.13;;
27533;SDS011;14973;51.460;7.008;2023-09-12T07:22:37;19.30;;;7.70;;
27533;SDS011;14973;51.460;7.008;2023-09-12T07:25:04;26.17;;;10.20;;
27533;SDS011;14973;51.460;7.008;2023-09-12T07:27:30;26.58;;;10.32;;
27533;SDS011;14973;51.460;7.008;2023-09-12T07:29:56;27.33;;;10.63;;
27533;SDS011;14973;51.460;7.008;2023-09-12T07:32:21;32.10;;;13.90;;
27533;SDS011;14973;51.460;7.008;2023-09-12T07:34:47;32.03;;;15.13;;
27533;SDS011;14973;51.460;7.008;2023-09-12T07:37:13;32.00;;;15.85;;
27533;SDS011;14973;51.460;7.008;2023-09-12T07:39:39;35.30;;;16.88;;
27533;SDS011;14973;51.460;7.008;2023-09-12T07:42:05;30.30;;;13.57;;
27533;SDS011;14973;51.460;7.008;2023-09-12T07:44:31;25.95;;;13.55;;
27533;SDS011;14973;51.460;7.008;2023-09-12T07:46:56;25.20;;;13.30;;
27533;SDS011;14973;51.460;7.008;2023-09-12T07:49:22;28.60;;;13.23;;
27533;SDS011;14973;51.460;7.008;2023-09-12T07:51:49;21.20;;;10.38;;
27533;SDS011;14973;51.460;7.008;2023-09-12T07:54:15;26.10;;;13.02;;
27533;SDS011;14973;51.460;7.008;2023-09-12T07:56:42;26.13;;;12.27;;
27533;SDS011;14973;51.460;7.008;2023-09-12T07:59:08;28.08;;;10.43;;
27533;SDS011;14973;51.460;7.008;2023-09-12T08:01:35;17.33;;;9.85;;
27533;SDS011;14973;51.460;7.008;2023-09-12T08:04:00;19.13;;;9.15;;
27533;SDS011;14973;51.460;7.008;2023-09-12T08:06:26;19.65;;;9.57;;
27533;SDS011;14973;51.460;7.008;2023-09-12T08:08:52;18.98;;;10.18;;
27533;SDS011;14973;51.460;7.008;2023-09-12T08:11:17;21.48;;;11.50;;
27533;SDS011;14973;51.460;7.008;2023-09-12T08:13:43;19.27;;;9.73;;
27533;SDS011;14973;51.460;7.008;2023-09-12T08:16:10;23.63;;;10.13;;
27533;SDS011;14973;51.460;7.008;2023-09-12T08:18:36;21.48;;;11.38;;
27533;SDS011;14973;51.460;7.008;2023-09-12T08:21:02;24.55;;;12.05;;
27533;SDS011;14973;51.460;7.008;2023-09-12T08:23:27;20.17;;;11.20;;
27533;SDS011;14973;51.460;7.008;2023-09-12T08:25:53;23.88;;;11.85;;
27533;SDS011;14973;51.460;7.008;2023-09-12T08:28:18;25.15;;;12.75;;
27533;SDS011;14973;51.460;7.008;2023-09-12T08:30:44;16.05;;;10.15;;
27533;SDS011;14973;51.460;7.008;2023-09-12T08:33:13;18.17;;;12.15;;
27533;SDS011;14973;51.460;7.008;2023-09-12T08:35:39;19.58;;;10.73;;
27533;SDS011;14973;51.460;7.008;2023-09-12T08:38:05;20.08;;;10.80;;
27533;SDS011;14973;51.460;7.008;2023-09-12T08:40:32;22.40;;;9.20;;
27533;SDS011;14973;51.460;7.008;2023-09-12T08:42:57;10.02;;;6.68;;
27533;SDS011;14973;51.460;7.008;2023-09-12T08:45:23;11.75;;;4.25;;
27533;SDS011;14973;51.460;7.008;2023-09-12T08:47:50;13.20;;;5.50;;
27533;SDS011;14973;51.460;7.008;2023-09-12T08:50:17;9.95;;;5.78;;
27533;SDS011;14973;51.460;7.008;2023-09-12T08:52:43;10.15;;;3.85;;
27533;SDS011;14973;51.460;7.008;2023-09-12T08:55:10;10.73;;;4.07;;
27533;SDS011;14973;51.460;7.008;2023-09-12T08:57:41;9.27;;;4.32;;
27533;SDS011;14973;51.460;7.008;2023-09-12T09:00:08;14.40;;;4.38;;
27533;SDS011;14973;51.460;7.008;2023-09-12T09:02:37;8.00;;;3.70;;
27533;SDS011;14973;51.460;7.008;2023-09-12T09:05:05;8.75;;;3.65;;
27533;SDS011;14973;51.460;7.008;2023-09-12T09:07:37;8.95;;;3.40;;
27533;SDS011;14973;51.460;7.008;2023-09-12T09:10:04;8.63;;;2.90;;
27533;SDS011;14973;51.460;7.008;2023-09-12T09:12:32;7.25;;;3.05;;
27533;SDS011;14973;51.460;7.008;2023-09-12T09:15:19;7.75;;;2.92;;
27533;SDS011;14973;51.460;7.008;2023-09-12T09:17:53;4.47;;;2.22;;
27533;SDS011;14973;51.460;7.008;2023-09-12T09:22:59;5.55;;;2.60;;
27533;SDS011;14973;51.460;7.008;2023-09-12T09:25:25;3.55;;;1.90;;
27533;SDS011;14973;51.460;7.008;2023-09-12T09:27:52;4.75;;;2.08;;
27533;SDS011;14973;51.460;7.008;2023-09-12T09:30:17;4.00;;;2.17;;
27533;SDS011;14973;51.460;7.008;2023-09-12T09:32:45;3.80;;;1.80;;
27533;SDS011;14973;51.460;7.008;2023-09-12T09:35:12;4.22;;;1.52;;
27533;SDS011;14973;51.460;7.008;2023-09-12T09:37:37;5.85;;;1.83;;
27533;SDS011;14973;51.460;7.008;2023-09-12T09:40:06;3.45;;;1.70;;
27533;SDS011;14973;51.460;7.008;2023-09-12T09:42:32;4.68;;;1.80;;
27533;SDS011;14973;51.460;7.008;2023-09-12T09:44:58;3.58;;;1.90;;
27533;SDS011;14973;51.460;7.008;2023-09-12T09:47:23;4.60;;;2.08;;
27533;SDS011;14973;51.460;7.008;2023-09-12T09:49:51;4.35;;;2.83;;
27533;SDS011;14973;51.460;7.008;2023-09-12T09:52:16;7.18;;;2.50;;
27533;SDS011;14973;51.460;7.008;2023-09-12T09:54:51;5.97;;;1.95;;
27533;SDS011;14973;51.460;7.008;2023-09-12T09:57:17;6.60;;;2.72;;
27533;SDS011;14973;51.460;7.008;2023-09-12T09:59:43;8.10;;;3.53;;
27533;SDS011;14973;51.460;7.008;2023-09-12T10:02:17;9.05;;;4.70;;
27533;SDS011;14973;51.460;7.008;2023-09-12T10:04:46;7.35;;;4.20;;
27533;SDS011;14973;51.460;7.008;2023-09-12T10:07:12;5.63;;;3.67;;
27533;SDS011;14973;51.460;7.008;2023-09-12T10:09:39;8.57;;;4.28;;
27533;SDS011;14973;51.460;7.008;2023-09-12T10:12:07;11.50;;;4.50;;
27533;SDS011;14973;51.460;7.008;2023-09-12T10:14:33;7.63;;;5.93;;
27533;SDS011;14973;51.460;7.008;2023-09-12T10:17:01;9.05;;;5.05;;
27533;SDS011;14973;51.460;7.008;2023-09-12T10:19:43;12.95;;;6.55;;
27533;SDS011;14973;51.460;7.008;2023-09-12T10:22:17;11.10;;;6.78;;
27533;SDS011;14973;51.460;7.008;2023-09-12T10:24:49;12.37;;;7.00;;
27533;SDS011;14973;51.460;7.008;2023-09-12T10:27:15;11.50;;;6.68;;
27533;SDS011;14973;51.460;7.008;2023-09-12T10:29:43;12.45;;;5.00;;
27533;SDS011;14973;51.460;7.008;2023-09-12T10:32:12;7.47;;;5.00;;
27533;SDS011;14973;51.460;7.008;2023-09-12T10:34:39;6.80;;;5.95;;
27533;SDS011;14973;51.460;7.008;2023-09-12T10:37:10;11.80;;;6.18;;
27533;SDS011;14973;51.460;7.008;2023-09-12T10:39:40;9.95;;;6.82;;
27533;SDS011;14973;51.460;7.008;2023-09-12T10:42:08;10.38;;;6.80;;
27533;SDS011;14973;51.460;7.008;2023-09-12T10:44:35;9.07;;;8.13;;
27533;SDS011;14973;51.460;7.008;2023-09-12T10:47:01;14.02;;;8.98;;
27533;SDS011;14973;51.460;7.008;2023-09-12T10:49:28;14.27;;;8.00;;
27533;SDS011;14973;51.460;7.008;2023-09-12T10:51:55;14.95;;;8.35;;
27533;SDS011;14973;51.460;7.008;2023-09-12T10:54:23;12.75;;;7.88;;
27533;SDS011;14973;51.460;7.008;2023-09-12T10:57:10;14.88;;;8.60;;
27533;SDS011;14973;51.460;7.008;2023-09-12T11:02:30;14.00;;;7.50;;
27533;SDS011;14973;51.460;7.008;2023-09-12T11:05:00;14.98;;;7.15;;
27533;SDS011;14973;51.460;7.008;2023-09-12T11:07:49;13.18;;;9.18;;
27533;SDS011;14973;51.460;7.008;2023-09-12T11:12:43;24.90;;;9.35;;
27533;SDS011;14973;51.460;7.008;2023-09-12T11:15:10;15.18;;;8.07;;
27533;SDS011;14973;51.460;7.008;2023-09-12T11:17:40;17.50;;;10.23;;
27533;SDS011;14973;51.460;7.008;2023-09-12T11:20:07;12.15;;;9.00;;
27533;SDS011;14973;51.460;7.008;2023-09-12T11:22:37;14.50;;;6.78;;
27533;SDS011;14973;51.460;7.008;2023-09-12T11:25:04;11.77;;;7.82;;
27533;SDS011;14973;51.460;7.008;2023-09-12T11:30:22;11.52;;;8.80;;
27533;SDS011;14973;51.460;7.008;2023-09-12T11:32:50;17.05;;;7.82;;
27533;SDS011;14973;51.460;7.008;2023-09-12T11:35:17;13.35;;;8.18;;
27533;SDS011;14973;51.460;7.008;2023-09-12T11:37:51;10.63;;;8.43;;
27533;SDS011;14973;51.460;7.008;2023-09-12T11:42:58;13.70;;;9.70;;
27533;SDS011;14973;51.460;7.008;2023-09-12T11:45:24;12.48;;;9.57;;
27533;SDS011;14973;51.460;7.008;2023-09-12T11:47:50;11.75;;;7.80;;
27533;SDS011;14973;51.460;7.008;2023-09-12T11:50:34;14.75;;;9.40;;
27533;SDS011;14973;51.460;7.008;2023-09-12T11:53:04;17.90;;;11.63;;
27533;SDS011;14973;51.460;7.008;2023-09-12T11:55:36;16.85;;;8.85;;
27533;SDS011;14973;51.460;7.008;2023-09-12T11:58:10;13.80;;;8.13;;
27533;SDS011;14973;51.460;7.008;2023-09-12T12:00:37;14.57;;;8.30;;
27533;SDS011;14973;51.460;7.008;2023-09-12T12:03:07;9.82;;;7.18;;
27533;SDS011;14973;51.460;7.008;2023-09-12T12:05:34;10.10;;;6.70;;
27533;SDS011;14973;51.460;7.008;2023-09-12T12:08:00;15.60;;;6.63;;
27533;SDS011;14973;51.460;7.008;2023-09-12T12:10:25;12.15;;;7.05;;
27533;SDS011;14973;51.460;7.008;2023-09-12T12:12:53;12.18;;;7.55;;
27533;SDS011;14973;51.460;7.008;2023-09-12T12:15:19;9.85;;;7.30;;
27533;SDS011;14973;51.460;7.008;2023-09-12T12:17:45;12.80;;;7.47;;
27533;SDS011;14973;51.460;7.008;2023-09-12T12:20:11;8.95;;;6.95;;
27533;SDS011;14973;51.460;7.008;2023-09-12T12:22:39;12.48;;;6.40;;
27533;SDS011;14973;51.460;7.008;2023-09-12T12:25:09;9.27;;;6.68;;
27533;SDS011;14973;51.460;7.008;2023-09-12T12:27:39;19.83;;;7.35;;
27533;SDS011;14973;51.460;7.008;2023-09-12T12:30:06;10.73;;;6.40;;
27533;SDS011;14973;51.460;7.008;2023-09-12T12:32:39;11.77;;;7.20;;
27533;SDS011;14973;51.460;7.008;2023-09-12T12:35:26;13.30;;;6.28;;
27533;SDS011;14973;51.460;7.008;2023-09-12T12:37:53;10.27;;;6.47;;
27533;SDS011;14973;51.460;7.008;2023-09-12T12:40:23;15.00;;;6.15;;
27533;SDS011;14973;51.460;7.008;2023-09-12T12:42:50;10.48;;;5.82;;
27533;SDS011;14973;51.460;7.008;2023-09-12T12:45:16;16.50;;;5.28;;
27533;SDS011;14973;51.460;7.008;2023-09-12T12:47:43;11.18;;;5.78;;
27533;SDS011;14973;51.460;7.008;2023-09-12T12:50:16;8.30;;;5.60;;
27533;SDS011;14973;51.460;7.008;2023-09-12T12:55:11;14.13;;;6.13;;
27533;SDS011;14973;51.460;7.008;2023-09-12T12:57:38;10.85;;;5.60;;
27533;SDS011;14973;51.460;7.008;2023-09-12T13:00:05;13.13;;;6.95;;
27533;SDS011;14973;51.460;7.008;2023-09-12T13:02:32;9.40;;;6.18;;
27533;SDS011;14973;51.460;7.008;2023-09-12T13:04:58;13.55;;;7.28;;
27533;SDS011;14973;51.460;7.008;2023-09-12T13:07:24;11.55;;;6.53;;
27533;SDS011;14973;51.460;7.008;2023-09-12T13:09:49;14.68;;;6.85;;
27533;SDS011;14973;51.460;7.008;2023-09-12T13:12:15;10.63;;;6.35;;
27533;SDS011;14973;51.460;7.008;2023-09-12T13:14:42;11.07;;;5.97;;
27533;SDS011;14973;51.460;7.008;2023-09-12T13:17:09;9.68;;;5.97;;
27533;SDS011;14973;51.460;7.008;2023-09-12T13:19:34;14.98;;;6.50;;
27533;SDS011;14973;51.460;7.008;2023-09-12T13:22:00;10.18;;;6.50;;
27533;SDS011;14973;51.460;7.008;2023-09-12T13:24:25;16.55;;;6.45;;
27533;SDS011;14973;51.460;7.008;2023-09-12T13:26:51;8.80;;;6.80;;
27533;SDS011;14973;51.460;7.008;2023-09-12T13:29:17;12.52;;;6.43;;
27533;SDS011;14973;51.460;7.008;2023-09-12T13:31:43;15.98;;;7.13;;
27533;SDS011;14973;51.460;7.008;2023-09-12T13:34:08;12.27;;;7.80;;
27533;SDS011;14973;51.460;7.008;2023-09-12T13:36:34;15.50;;;8.50;;
27533;SDS011;14973;51.460;7.008;2023-09-12T13:39:00;17.27;;;9.73;;
27533;SDS011;14973;51.460;7.008;2023-09-12T13:41:26;17.63;;;10.90;;
27533;SDS011;14973;51.460;7.008;2023-09-12T13:43:52;13.40;;;9.13;;
27533;SDS011;14973;51.460;7.008;2023-09-12T13:46:18;16.40;;;10.55;;
27533;SDS011;14973;51.460;7.008;2023-09-12T13:48:43;25.77;;;10.82;;
27533;SDS011;14973;51.460;7.008;2023-09-12T13:51:09;19.75;;;11.35;;
27533;SDS011;14973;51.460;7.008;2023-09-12T13:53:34;17.08;;;11.85;;
27533;SDS011;14973;51.460;7.008;2023-09-12T13:56:00;26.73;;;14.63;;
27533;SDS011;14973;51.460;7.008;2023-09-12T13:58:27;21.52;;;12.07;;
27533;SDS011;14973;51.460;7.008;2023-09-12T14:00:52;16.13;;;9.82;;
27533;SDS011;14973;51.460;7.008;2023-09-12T14:03:18;14.07;;;8.77;;
27533;SDS011;14973;51.460;7.008;2023-09-12T14:05:43;13.38;;;8.88;;
27533;SDS011;14973;51.460;7.008;2023-09-12T14:08:09;16.73;;;9.25;;
27533;SDS011;14973;51.460;7.008;2023-09-12T14:10:35;14.15;;;9.60;;
27533;SDS011;14973;51.460;7.008;2023-09-12T14:13:00;16.95;;;9.60;;
27533;SDS011;14973;51.460;7.008;2023-09-12T14:15:26;11.82;;;8.48;;
27533;SDS011;14973;51.460;7.008;2023-09-12T14:17:52;16.17;;;9.65;;
27533;SDS011;14973;51.460;7.008;2023-09-12T14:20:17;17.98;;;10.50;;
27533;SDS011;14973;51.460;7.008;2023-09-12T14:22:43;12.10;;;8.75;;
27533;SDS011;14973;51.460;7.008;2023-09-12T14:25:09;15.15;;;10.68;;
27533;SDS011;14973;51.460;7.008;2023-09-12T14:27:40;14.48;;;11.07;;
27533;SDS011;14973;51.460;7.008;2023-09-12T14:30:09;19.83;;;9.88;;
27533;SDS011;14973;51.460;7.008;2023-09-12T14:32:36;12.20;;;8.95;;
27533;SDS011;14973;51.460;7.008;2023-09-12T14:35:02;17.33;;;9.20;;
27533;SDS011;14973;51.460;7.008;2023-09-12T14:37:28;16.55;;;9.63;;
27533;SDS011;14973;51.460;7.008;2023-09-12T14:39:54;12.60;;;9.57;;
27533;SDS011;14973;51.460;7.008;2023-09-12T14:42:21;19.27;;;9.68;;
27533;SDS011;14973;51.460;7.008;2023-09-12T14:44:46;12.90;;;8.90;;
27533;SDS011;14973;51.460;7.008;2023-09-12T14:47:12;12.55;;;8.93;;
27533;SDS011;14973;51.460;7.008;2023-09-12T14:49:38;18.88;;;9.32;;